Time;durP1;ratioP1;P1;durP2;ratioP2;P2;SDS_P1;SDS_P2;PMS_P1;PMS_P2;Temp;Humidity;BMP_temperature;BMP_pressure;BME280_temperature;BME280_humidity;BME280_pressure;Samples;Min_cycle;Max_cycle;Signal;HPM_P1;HPM_P2
2023/04/12 00:00:39;;;;;;;3.90;1.40;;;;;;;12.42;59.64;99878.94;5020606;28;20446;-74
2023/04/12 00:03:06;;;;;;;4.23;1.50;;;;;;;12.37;60.65;99872.69;5029977;28;20417;-74
2023/04/12 00:05:33;;;;;;;3.00;1.30;;;;;;;12.24;62.17;99867.78;5033535;28;20391;-74
2023/04/12 00:08:01;;;;;;;3.77;1.33;;;;;;;12.16;62.78;99862.88;5025521;28;20443;-74
2023/04/12 00:10:26;;;;;;;2.88;1.48;;;;;;;12.14;63.51;99856.91;5013581;28;20401;-74
2023/04/12 00:12:51;;;;;;;3.50;1.87;;;;;;;12.12;64.08;99848.22;5012266;28;20891;-74
2023/04/12 00:15:17;;;;;;;4.30;1.27;;;;;;;11.99;65.15;99848.75;5016700;28;20893;-74
2023/04/12 00:17:43;;;;;;;1.83;1.27;;;;;;;12.01;65.05;99849.28;5035283;28;20480;-74
2023/04/12 00:20:11;;;;;;;3.80;1.20;;;;;;;11.98;66.02;99838.94;5024059;28;20383;-74
2023/04/12 00:22:36;;;;;;;1.90;1.00;;;;;;;11.96;66.34;99831.06;5028617;28;20398;-74
2023/04/12 00:25:02;;;;;;;2.47;1.40;;;;;;;12.00;66.48;99829.44;5016882;28;20780;-74
2023/04/12 00:27:27;;;;;;;1.60;1.20;;;;;;;11.92;67.07;99824.56;5026260;28;20417;-74
2023/04/12 00:29:52;;;;;;;3.80;1.20;;;;;;;12.01;67.10;99816.69;5023232;28;20391;-74
2023/04/12 00:32:18;;;;;;;5.07;1.40;;;;;;;12.05;67.01;99806.91;5019183;28;20868;-74
2023/04/12 00:34:43;;;;;;;6.80;1.40;;;;;;;12.04;67.66;99800.66;5026969;28;20402;-74
2023/04/12 00:37:08;;;;;;;2.50;1.00;;;;;;;12.06;67.58;99795.78;5018206;28;20712;-74
2023/04/12 00:39:34;;;;;;;1.87;1.13;;;;;;;12.13;67.62;99792.78;5023994;28;20389;-74
2023/04/12 00:42:03;;;;;;;2.43;1.00;;;;;;;12.15;67.84;99780.56;5025495;28;20395;-74
2023/04/12 00:44:29;;;;;;;3.85;1.33;;;;;;;12.21;67.71;99778.69;5016670;28;20409;-74
2023/04/12 00:46:55;;;;;;;3.10;1.23;;;;;;;12.13;68.14;99779.22;5026317;28;20409;-74
2023/04/12 00:49:20;;;;;;;4.30;1.40;;;;;;;11.98;68.74;99782.75;5024016;28;20405;-73
2023/04/12 00:51:45;;;;;;;2.67;1.30;;;;;;;11.84;69.57;99778.91;5037404;28;20414;-74
2023/04/12 00:54:12;;;;;;;2.80;1.10;;;;;;;11.90;69.57;99775.94;5017001;28;20975;-74
2023/04/12 00:56:39;;;;;;;3.27;1.40;;;;;;;11.91;69.85;99771.31;5021369;28;20428;-73
2023/04/12 00:59:05;;;;;;;2.97;1.42;;;;;;;11.70;70.47;99766.91;5013917;28;20400;-74
2023/04/12 01:01:30;;;;;;;4.25;1.45;;;;;;;11.67;70.77;99757.41;5016867;28;20495;-73
2023/04/12 01:03:59;;;;;;;4.25;1.20;;;;;;;11.73;71.02;99761.78;5027624;28;20506;-73
2023/04/12 01:06:47;;;;;;;1.90;1.30;;;;;;;11.97;70.38;99753.94;5015572;28;20758;-74
2023/04/12 01:09:30;;;;;;;3.90;1.25;;;;;;;11.98;70.04;99757.50;5022422;28;20383;-74
2023/04/12 01:12:24;;;;;;;3.83;1.20;;;;;;;11.90;70.34;99746.06;5016117;28;20404;-74
2023/04/12 01:15:10;;;;;;;7.32;1.40;;;;;;;11.96;70.03;99739.56;5018086;28;20423;-74
2023/04/12 01:17:56;;;;;;;2.50;0.90;;;;;;;12.04;69.89;99729.25;5012434;28;20918;-74
2023/04/12 01:20:25;;;;;;;2.80;1.10;;;;;;;12.02;69.95;99724.06;5017049;28;20386;-73
2023/04/12 01:23:17;;;;;;;3.67;1.30;;;;;;;11.91;70.60;99720.56;5032004;28;20804;-73
2023/04/12 01:26:01;;;;;;;2.28;1.10;;;;;;;12.00;70.46;99711.84;5014772;28;20412;-74
2023/04/12 01:28:32;;;;;;;3.47;1.30;;;;;;;11.98;70.63;99703.19;5019899;28;20410;-74
2023/04/12 01:31:00;;;;;;;3.70;1.27;;;;;;;11.94;70.68;99711.06;5030549;28;20418;-74
2023/04/12 01:33:30;;;;;;;4.50;1.10;;;;;;;11.78;70.99;99702.09;5016836;28;20880;-73
2023/04/12 01:35:58;;;;;;;3.60;1.17;;;;;;;11.73;71.33;99693.13;5015267;28;20398;-73
2023/04/12 01:38:23;;;;;;;3.35;0.90;;;;;;;11.68;71.64;99684.94;5023833;28;20433;-73
2023/04/12 01:40:49;;;;;;;2.97;1.10;;;;;;;11.81;70.94;99687.97;5022451;28;20410;-74
2023/04/12 01:43:15;;;;;;;4.80;1.40;;;;;;;11.65;71.28;99683.59;5016876;28;20415;-73
2023/04/12 01:45:40;;;;;;;2.65;1.38;;;;;;;11.45;71.98;99678.16;5027978;28;20902;-74
2023/04/12 01:48:10;;;;;;;2.70;0.82;;;;;;;11.42;72.38;99675.97;5018303;28;20391;-73
2023/04/12 01:51:09;;;;;;;1.30;0.77;;;;;;;11.49;72.26;99671.09;5036149;28;20401;-74
2023/04/12 01:54:01;;;;;;;2.10;0.85;;;;;;;11.64;71.69;99665.69;5030742;28;20391;-74
2023/04/12 01:56:30;;;;;;;2.55;0.80;;;;;;;11.60;71.28;99656.44;5036738;28;20388;-74
2023/04/12 01:58:57;;;;;;;2.00;1.00;;;;;;;11.60;71.62;99652.91;5023198;28;20403;-74
2023/04/12 02:01:24;;;;;;;2.03;1.10;;;;;;;11.71;71.43;99649.16;5013169;28;20425;-73
2023/04/12 02:03:51;;;;;;;1.23;0.68;;;;;;;11.76;71.07;99649.13;5018065;28;20487;-73
2023/04/12 02:06:20;;;;;;;1.40;0.80;;;;;;;11.84;71.11;99640.47;5021470;28;20412;-73
2023/04/12 02:08:46;;;;;;;3.22;0.90;;;;;;;11.87;70.77;99624.44;5022022;28;20402;-73
2023/04/12 02:11:11;;;;;;;1.63;0.77;;;;;;;11.90;70.91;99629.31;5014925;28;20609;-73
2023/04/12 02:13:37;;;;;;;3.23;1.33;;;;;;;11.90;70.56;99620.38;5018578;28;20403;-74
2023/04/12 02:16:03;;;;;;;2.45;0.70;;;;;;;11.89;70.74;99616.00;5019762;28;20408;-73
2023/04/12 02:18:29;;;;;;;2.17;0.80;;;;;;;11.84;71.03;99606.00;5020613;28;20389;-73
2023/04/12 02:20:55;;;;;;;2.00;0.80;;;;;;;11.85;70.87;99610.34;5012920;28;20388;-74
2023/04/12 02:23:20;;;;;;;1.00;0.60;;;;;;;11.88;70.78;99604.38;5027072;28;20426;-74
2023/04/12 02:25:45;;;;;;;3.57;0.90;;;;;;;11.91;70.89;99603.81;5022914;28;20408;-74
2023/04/12 02:28:12;;;;;;;1.93;0.87;;;;;;;11.91;70.77;99595.66;5014116;28;20412;-74
2023/04/12 02:30:37;;;;;;;3.72;0.73;;;;;;;11.89;71.10;99581.53;5014104;28;20880;-73
2023/04/12 02:33:06;;;;;;;1.40;0.60;;;;;;;11.87;71.28;99588.34;5026472;28;20461;-73
2023/04/12 02:35:31;;;;;;;2.30;0.95;;;;;;;11.88;71.26;99581.81;5011638;28;20404;-74
2023/04/12 02:37:57;;;;;;;1.20;0.70;;;;;;;11.86;71.13;99573.13;5023458;28;20782;-73
2023/04/12 02:40:22;;;;;;;4.90;0.83;;;;;;;11.82;71.50;99574.78;5026735;28;20468;-73
2023/04/12 02:42:47;;;;;;;2.13;0.60;;;;;;;11.78;71.80;99557.41;5026786;28;20405;-74
2023/04/12 02:45:13;;;;;;;0.70;0.70;;;;;;;11.76;71.77;99562.28;5022233;28;20756;-74
2023/04/12 02:47:39;;;;;;;2.23;0.70;;;;;;;11.73;72.01;99551.97;5022259;28;20434;-73
2023/04/12 02:50:05;;;;;;;2.75;1.08;;;;;;;11.76;71.86;99551.44;5026699;28;20394;-74
2023/04/12 02:52:31;;;;;;;1.55;0.47;;;;;;;11.72;71.67;99543.00;5031586;28;20400;-74
2023/04/12 02:54:57;;;;;;;2.33;1.08;;;;;;;11.72;71.90;99531.38;5020055;28;20407;-74
2023/04/12 02:57:23;;;;;;;1.43;0.43;;;;;;;11.74;72.08;99526.47;5030398;28;20461;-74
2023/04/12 02:59:52;;;;;;;2.28;0.77;;;;;;;11.76;72.19;99516.13;5019722;28;20775;-74
2023/04/12 03:02:19;;;;;;;0.90;0.40;;;;;;;11.75;72.43;99509.91;5062989;28;20522;-74
2023/04/12 03:04:45;;;;;;;1.05;0.50;;;;;;;11.75;72.14;99509.09;5024132;28;20464;-74
2023/04/12 03:07:12;;;;;;;1.65;0.73;;;;;;;11.76;72.39;99508.00;5024172;28;20404;-74
2023/04/12 03:09:37;;;;;;;3.00;0.60;;;;;;;11.79;72.26;99496.59;5014733;28;20397;-74
2023/04/12 03:12:03;;;;;;;2.90;0.80;;;;;;;11.76;72.30;99487.09;5030351;28;20405;-74
2023/04/12 03:14:29;;;;;;;0.93;0.57;;;;;;;11.76;72.54;99484.38;5019836;28;20785;-74
2023/04/12 03:16:55;;;;;;;1.90;0.50;;;;;;;11.76;72.40;99486.28;5025628;28;20400;-74
2023/04/12 03:19:20;;;;;;;1.90;0.60;;;;;;;11.74;72.51;99481.16;5027485;28;20739;-74
2023/04/12 03:21:46;;;;;;;1.33;0.68;;;;;;;11.73;72.67;99470.56;5025271;28;20411;-74
2023/04/12 03:24:12;;;;;;;1.70;0.87;;;;;;;11.71;72.73;99465.41;5019596;28;20413;-74
2023/04/12 03:26:38;;;;;;;1.27;1.03;;;;;;;11.66;72.93;99461.84;5023316;28;20419;-73
2023/04/12 03:29:09;;;;;;;0.70;0.60;;;;;;;11.57;73.58;99447.22;5018777;28;20399;-74
2023/04/12 03:31:35;;;;;;;1.85;0.63;;;;;;;11.56;73.55;99451.06;5030398;28;20427;-74
2023/04/12 03:34:01;;;;;;;1.30;0.60;;;;;;;11.43;73.80;99442.38;5017085;28;20750;-74
2023/04/12 03:36:26;;;;;;;2.10;1.00;;;;;;;11.35;74.50;99429.41;5026294;28;20451;-74
2023/04/12 03:38:52;;;;;;;1.23;0.70;;;;;;;11.31;74.70;99422.88;5025019;28;20461;-74
2023/04/12 03:41:18;;;;;;;2.10;0.90;;;;;;;11.27;75.12;99418.28;5033007;28;20383;-74
2023/04/12 03:43:43;;;;;;;0.87;0.50;;;;;;;11.32;74.99;99416.38;5013504;28;20843;-74
2023/04/12 03:46:08;;;;;;;0.90;0.60;;;;;;;11.33;74.64;99415.28;5023053;28;20897;-74
2023/04/12 03:48:35;;;;;;;2.47;0.60;;;;;;;11.34;74.66;99418.81;5023482;28;20392;-74
2023/04/12 03:51:07;;;;;;;0.73;0.40;;;;;;;11.35;74.72;99413.13;5043590;28;20426;-74
2023/04/12 03:53:33;;;;;;;2.33;0.65;;;;;;;11.27;75.17;99408.25;5015271;28;20859;-74
2023/04/12 03:55:58;;;;;;;1.23;0.60;;;;;;;11.29;75.22;99400.66;5032482;28;20423;-74
2023/04/12 03:58:23;;;;;;;2.53;0.60;;;;;;;11.34;75.09;99397.91;5022536;28;20397;-74
2023/04/12 04:00:49;;;;;;;3.40;1.83;;;;;;;11.26;75.19;99384.91;5011768;28;20496;-74
2023/04/12 04:03:15;;;;;;;0.97;0.73;;;;;;;11.26;75.49;99386.84;5015472;28;20415;-73
2023/04/12 04:05:41;;;;;;;2.00;0.67;;;;;;;11.34;75.27;99383.53;5028525;28;20404;-74
2023/04/12 04:08:07;;;;;;;1.17;0.90;;;;;;;11.41;75.03;99375.94;5023093;28;20395;-74
2023/04/12 04:10:33;;;;;;;1.23;0.63;;;;;;;11.40;75.13;99372.41;5032157;28;20403;-74
2023/04/12 04:12:58;;;;;;;1.30;0.70;;;;;;;11.41;74.96;99371.31;5032462;28;20396;-74
2023/04/12 04:15:25;;;;;;;0.73;0.70;;;;;;;11.35;75.30;99368.91;5018183;28;20470;-74
2023/04/12 04:17:50;;;;;;;0.68;0.68;;;;;;;11.31;75.40;99362.41;5013460;28;20400;-74
2023/04/12 04:20:17;;;;;;;1.30;0.80;;;;;;;11.29;75.64;99365.41;5025710;28;20811;-74
2023/04/12 04:22:44;;;;;;;2.50;0.75;;;;;;;11.31;75.98;99357.78;5017158;28;20824;-74
2023/04/12 04:25:13;;;;;;;1.73;0.77;;;;;;;11.27;75.85;99356.72;5028433;28;20417;-74
2023/04/12 04:27:39;;;;;;;1.07;1.00;;;;;;;11.25;76.03;99358.09;5024846;28;20449;-74
2023/04/12 04:30:05;;;;;;;1.33;0.70;;;;;;;11.27;76.09;99343.16;5025659;28;20402;-74
2023/04/12 04:32:32;;;;;;;1.30;0.90;;;;;;;11.36;75.93;99344.19;5016424;28;20404;-74
2023/04/12 04:35:01;;;;;;;0.73;0.70;;;;;;;11.39;75.85;99337.44;5017978;28;20441;-74
2023/04/12 04:37:30;;;;;;;2.30;1.17;;;;;;;11.37;75.85;99339.59;5013744;28;20401;-74
2023/04/12 04:39:56;;;;;;;2.22;0.80;;;;;;;11.40;76.00;99337.13;5024935;28;20455;-74
2023/04/12 04:42:23;;;;;;;3.13;1.03;;;;;;;11.43;75.94;99342.00;5028335;28;20428;-74
2023/04/12 04:44:59;;;;;;;2.10;0.90;;;;;;;11.45;75.85;99342.56;5014919;28;20421;-74
2023/04/12 04:47:24;;;;;;;2.60;1.00;;;;;;;11.50;75.87;99343.59;5021187;28;20438;-74
2023/04/12 04:49:49;;;;;;;2.30;0.80;;;;;;;11.53;75.59;99345.75;5026872;28;20428;-74
2023/04/12 04:52:15;;;;;;;0.80;0.80;;;;;;;11.53;75.50;99338.44;5020943;28;20487;-73
2023/04/12 04:54:40;;;;;;;0.80;0.80;;;;;;;11.51;75.73;99331.66;5033310;28;20423;-73
2023/04/12 04:57:06;;;;;;;0.87;0.80;;;;;;;11.49;75.50;99326.53;5024938;28;20950;-74
2023/04/12 04:59:32;;;;;;;1.13;0.82;;;;;;;11.49;75.61;99323.81;5012746;28;20887;-73
2023/04/12 05:01:57;;;;;;;2.33;0.80;;;;;;;11.49;75.43;99328.44;5040084;28;20421;-74
2023/04/12 05:04:23;;;;;;;1.30;1.07;;;;;;;11.49;75.65;99328.44;5015649;28;20453;-74
2023/04/12 05:06:48;;;;;;;2.00;0.60;;;;;;;11.51;75.91;99324.34;5030937;28;20442;-74
2023/04/12 05:09:13;;;;;;;2.40;0.90;;;;;;;11.52;75.85;99317.03;5027684;28;20403;-74
2023/04/12 05:11:38;;;;;;;1.10;0.80;;;;;;;11.53;75.50;99316.72;5025680;28;20398;-73
2023/04/12 05:14:04;;;;;;;1.30;0.90;;;;;;;11.54;75.48;99314.84;5028074;28;20502;-74
2023/04/12 05:16:29;;;;;;;4.67;0.90;;;;;;;11.50;75.85;99311.03;5038456;28;20391;-74
2023/04/12 05:18:54;;;;;;;2.00;0.87;;;;;;;11.51;75.63;99290.97;5013814;28;20955;-73
2023/04/12 05:21:19;;;;;;;1.50;0.90;;;;;;;11.52;75.54;99290.72;5025031;28;20421;-73
2023/04/12 05:23:46;;;;;;;1.20;0.97;;;;;;;11.50;75.89;99282.03;5023720;28;20465;-74
2023/04/12 05:26:11;;;;;;;2.43;0.77;;;;;;;11.50;75.95;99273.06;5017116;28;20753;-74
2023/04/12 05:28:37;;;;;;;2.43;0.70;;;;;;;11.46;76.17;99268.19;5020556;28;20395;-74
2023/04/12 05:31:02;;;;;;;0.90;0.70;;;;;;;11.48;76.44;99264.41;5028998;28;20436;-73
2023/04/12 05:33:28;;;;;;;1.60;0.80;;;;;;;11.50;76.55;99257.59;5015317;28;20417;-73
2023/04/12 05:35:53;;;;;;;1.10;0.70;;;;;;;11.52;76.37;99239.16;5024708;28;20486;-73
2023/04/12 05:38:18;;;;;;;1.50;0.80;;;;;;;11.51;76.24;99232.09;5021694;28;21190;-73
2023/04/12 05:40:43;;;;;;;1.90;0.70;;;;;;;11.52;76.27;99233.72;5024049;28;20483;-73
2023/04/12 05:43:12;;;;;;;3.13;1.40;;;;;;;11.46;76.38;99230.22;5030255;28;20399;-73
2023/04/12 05:45:38;;;;;;;1.80;0.80;;;;;;;11.46;76.58;99226.69;5017199;28;20473;-73
2023/04/12 05:48:04;;;;;;;1.20;0.87;;;;;;;11.42;76.56;99221.03;5029789;28;20478;-73
2023/04/12 05:50:30;;;;;;;0.93;0.60;;;;;;;11.43;76.74;99222.66;5023056;28;20580;-73
2023/04/12 05:52:55;;;;;;;1.10;0.60;;;;;;;11.50;76.70;99219.63;5022624;28;20403;-73
2023/04/12 05:55:20;;;;;;;2.37;0.70;;;;;;;11.55;76.59;99218.78;5026726;28;20485;-73
2023/04/12 05:57:46;;;;;;;2.70;0.80;;;;;;;11.57;76.56;99217.41;5029290;28;20429;-73
2023/04/12 06:00:15;;;;;;;0.80;0.80;;;;;;;11.56;76.59;99213.06;5031322;28;20403;-73
2023/04/12 06:02:40;;;;;;;2.00;0.93;;;;;;;11.61;76.75;99213.03;5031384;28;20395;-73
2023/04/12 06:05:07;;;;;;;1.83;1.07;;;;;;;11.62;76.58;99211.97;5024217;28;20415;-73
2023/04/12 06:07:32;;;;;;;1.88;0.93;;;;;;;11.61;76.64;99207.63;5013429;28;20836;-73
2023/04/12 06:09:57;;;;;;;0.90;0.90;;;;;;;11.64;76.80;99214.38;5022364;28;20497;-73
2023/04/12 06:12:23;;;;;;;3.23;0.90;;;;;;;11.62;76.76;99206.53;5023232;28;20418;-73
2023/04/12 06:14:48;;;;;;;2.00;1.03;;;;;;;11.68;76.72;99188.31;5024929;28;20402;-73
2023/04/12 06:17:13;;;;;;;1.20;0.97;;;;;;;11.71;76.63;99187.78;5026091;28;20398;-73
2023/04/12 06:19:38;;;;;;;2.50;1.70;;;;;;;11.66;76.72;99185.03;5029873;28;20392;-73
2023/04/12 06:22:04;;;;;;;10.83;7.50;;;;;;;11.65;76.86;99178.84;5020955;28;20401;-72
2023/04/12 06:24:29;;;;;;;3.20;3.00;;;;;;;11.71;76.85;99177.72;5017762;28;20416;-74
2023/04/12 06:26:54;;;;;;;2.27;1.80;;;;;;;11.80;76.66;99169.78;5026535;28;20411;-75
2023/04/12 06:29:20;;;;;;;1.13;0.90;;;;;;;11.84;76.64;99168.94;5027272;28;20891;-74
2023/04/12 06:31:45;;;;;;;3.23;1.10;;;;;;;11.91;76.56;99155.03;5025669;28;20452;-74
2023/04/12 06:34:10;;;;;;;0.85;0.85;;;;;;;11.94;76.49;99147.13;5030373;28;20414;-73
2023/04/12 06:36:37;;;;;;;1.10;1.00;;;;;;;11.99;76.63;99145.47;5030027;28;20546;-74
2023/04/12 06:39:03;;;;;;;1.38;1.10;;;;;;;12.00;76.55;99130.78;5024980;28;20390;-73
2023/04/12 06:41:28;;;;;;;3.13;1.00;;;;;;;11.98;76.59;99133.00;5024137;28;20389;-73
2023/04/12 06:43:53;;;;;;;1.90;0.80;;;;;;;12.03;76.54;99122.06;5016831;28;20507;-74
2023/04/12 06:46:26;;;;;;;1.30;0.90;;;;;;;12.02;76.96;99118.53;5014761;28;20478;-73
2023/04/12 06:48:52;;;;;;;1.88;1.00;;;;;;;12.05;76.61;99118.00;5029659;28;20404;-73
2023/04/12 06:51:17;;;;;;;0.82;0.82;;;;;;;12.08;76.43;99120.13;5015779;28;20752;-73
2023/04/12 06:53:42;;;;;;;2.50;1.10;;;;;;;12.08;76.60;99103.84;5030236;28;20899;-73
2023/04/12 06:56:08;;;;;;;1.60;1.10;;;;;;;12.04;77.17;99104.69;5022625;28;20436;-74
2023/04/12 06:58:33;;;;;;;2.23;1.23;;;;;;;12.07;77.49;99099.50;5030736;28;20408;-74
2023/04/12 07:01:12;;;;;;;2.08;1.20;;;;;;;12.15;77.25;99106.22;5032028;28;20772;-75
2023/04/12 07:03:37;;;;;;;1.23;0.90;;;;;;;12.25;77.13;99098.75;5029993;28;20965;-74
2023/04/12 07:06:03;;;;;;;2.77;1.10;;;;;;;12.32;76.90;99092.97;5030041;28;20494;-73
2023/04/12 07:08:29;;;;;;;1.42;1.05;;;;;;;12.35;77.09;99093.19;5021156;28;20895;-75
2023/04/12 07:10:55;;;;;;;3.13;1.23;;;;;;;12.39;76.97;99088.81;5021467;28;20400;-75
2023/04/12 07:13:21;;;;;;;4.13;1.30;;;;;;;12.42;76.82;99080.06;5024001;28;20414;-75
2023/04/12 07:15:47;;;;;;;2.77;1.30;;;;;;;12.39;76.76;99074.41;5023535;28;20395;-75
2023/04/12 07:18:15;;;;;;;1.80;1.08;;;;;;;12.40;76.82;99067.88;5047493;28;20407;-74
2023/04/12 07:20:40;;;;;;;1.25;0.95;;;;;;;12.40;76.56;99059.75;5032441;28;20439;-74
2023/04/12 07:23:06;;;;;;;2.53;1.10;;;;;;;12.34;76.90;99048.13;5026392;28;20403;-73
2023/04/12 07:25:31;;;;;;;2.10;1.00;;;;;;;12.37;77.28;99046.72;5018781;28;20879;-75
2023/04/12 07:27:56;;;;;;;2.90;1.30;;;;;;;12.41;77.08;99026.03;5041018;28;20464;-74
2023/04/12 07:30:22;;;;;;;2.33;1.17;;;;;;;12.39;77.51;99017.34;5031320;28;20953;-74
2023/04/12 07:32:47;;;;;;;3.27;1.20;;;;;;;12.42;77.39;99014.88;5032357;28;20401;-75
2023/04/12 07:35:13;;;;;;;4.05;1.55;;;;;;;12.49;77.07;99004.44;5030033;28;20415;-75
2023/04/12 07:37:38;;;;;;;1.30;1.20;;;;;;;12.63;76.98;99009.97;5034061;28;20877;-74
2023/04/12 07:40:04;;;;;;;4.00;0.93;;;;;;;12.75;76.49;99006.81;5027360;28;20410;-74
2023/04/12 07:42:30;;;;;;;1.45;1.35;;;;;;;12.76;76.12;99011.16;5029863;28;20399;-75
2023/04/12 07:44:55;;;;;;;5.70;3.87;;;;;;;12.79;76.63;99014.09;5031880;28;20813;-75
2023/04/12 07:47:20;;;;;;;3.50;1.53;;;;;;;12.81;76.56;99011.09;5029473;28;20414;-74
2023/04/12 07:49:45;;;;;;;3.28;1.52;;;;;;;12.81;76.82;99009.16;5028610;28;20407;-74
2023/04/12 07:52:11;;;;;;;2.47;1.30;;;;;;;12.83;76.73;99009.69;5005810;28;20412;-75
2023/04/12 07:54:36;;;;;;;3.53;1.43;;;;;;;12.86;76.30;99019.16;5026279;28;20407;-74
2023/04/12 07:57:02;;;;;;;2.90;1.70;;;;;;;12.85;76.27;99015.63;5019173;28;20414;-74
2023/04/12 07:59:28;;;;;;;3.50;1.67;;;;;;;12.78;76.92;99015.19;5022766;28;20830;-74
2023/04/12 08:01:53;;;;;;;3.95;2.13;;;;;;;12.79;76.88;99008.66;5021543;28;20459;-74
2023/04/12 08:04:19;;;;;;;4.53;2.00;;;;;;;12.76;77.46;99011.16;5024842;28;20418;-74
2023/04/12 08:06:45;;;;;;;2.67;1.37;;;;;;;12.72;77.32;99020.97;5019642;28;20413;-75
2023/04/12 08:09:10;;;;;;;5.27;1.60;;;;;;;12.72;77.39;98986.47;5029503;28;20395;-75
2023/04/12 08:11:35;;;;;;;5.03;1.60;;;;;;;12.70;77.81;98983.25;5019669;28;20474;-75
2023/04/12 08:14:00;;;;;;;5.60;1.60;;;;;;;12.70;78.00;98980.53;5030791;28;20406;-75
2023/04/12 08:16:26;;;;;;;3.10;1.50;;;;;;;12.78;78.09;98973.59;5020318;28;20443;-75
2023/04/12 08:18:51;;;;;;;6.18;1.50;;;;;;;12.83;77.75;98968.91;5029907;28;20914;-75
2023/04/12 08:21:17;;;;;;;2.60;1.63;;;;;;;12.94;77.44;98973.06;5031197;28;20415;-75
2023/04/12 08:23:42;;;;;;;2.20;1.40;;;;;;;13.07;77.26;98973.44;5045966;28;20414;-75
2023/04/12 08:26:08;;;;;;;3.90;1.53;;;;;;;13.20;77.02;98967.25;5028062;28;20421;-75
2023/04/12 08:28:33;;;;;;;3.00;1.40;;;;;;;13.17;76.39;98963.19;5026181;28;20467;-75
2023/04/12 08:30:59;;;;;;;4.70;1.90;;;;;;;13.17;76.39;98962.41;5029542;28;20413;-74
2023/04/12 08:33:24;;;;;;;3.90;1.53;;;;;;;13.18;76.19;98966.72;5013337;28;20397;-75
2023/04/12 08:35:51;;;;;;;3.10;1.70;;;;;;;13.17;76.14;98968.63;5036605;28;20400;-75
2023/04/12 08:38:16;;;;;;;2.47;1.48;;;;;;;13.20;76.25;98967.25;5017882;28;20473;-75
2023/04/12 08:40:42;;;;;;;3.57;1.80;;;;;;;13.18;76.37;98975.72;5028503;28;20435;-75
2023/04/12 08:43:10;;;;;;;3.63;1.83;;;;;;;13.15;75.94;98972.78;5025324;28;20407;-75
2023/04/12 08:45:36;;;;;;;2.80;1.70;;;;;;;13.10;76.06;98979.13;5029110;28;20418;-75
2023/04/12 08:48:03;;;;;;;2.28;1.48;;;;;;;13.08;76.67;98983.19;5015452;28;20405;-75
2023/04/12 08:50:29;;;;;;;3.42;1.95;;;;;;;13.05;76.48;98970.19;5043406;28;20426;-75
2023/04/12 08:52:55;;;;;;;3.28;1.60;;;;;;;13.01;76.98;98975.41;5033271;28;20416;-75
2023/04/12 08:55:20;;;;;;;1.50;1.40;;;;;;;13.04;77.02;98982.97;5012704;28;20525;-75
2023/04/12 08:57:46;;;;;;;3.30;1.83;;;;;;;13.04;77.01;98987.63;5040837;28;20453;-74
2023/04/12 09:00:13;;;;;;;4.88;1.45;;;;;;;12.95;77.12;98987.47;5033189;28;20501;-74
2023/04/12 09:02:41;;;;;;;2.80;1.67;;;;;;;12.88;77.36;98993.28;5026891;28;21007;-75
2023/04/12 09:05:08;;;;;;;2.42;1.73;;;;;;;12.77;77.69;98991.03;5037521;28;20423;-75
2023/04/12 09:07:34;;;;;;;3.10;1.30;;;;;;;12.76;78.13;98983.97;5030543;28;20438;-74
2023/04/12 09:10:00;;;;;;;4.23;1.40;;;;;;;12.84;77.77;98970.50;5030327;28;20436;-74
2023/04/12 09:12:26;;;;;;;2.50;1.40;;;;;;;12.88;77.57;98966.09;5031361;28;20810;-74
2023/04/12 09:15:12;;;;;;;3.63;1.90;;;;;;;12.97;77.03;98967.03;5021917;28;20413;-75
2023/04/12 09:17:44;;;;;;;2.67;1.10;;;;;;;13.06;77.28;98959.03;5012329;28;20393;-74
2023/04/12 09:20:16;;;;;;;2.35;1.75;;;;;;;13.15;76.64;98956.44;5025414;28;20841;-74
2023/04/12 09:22:45;;;;;;;7.65;1.70;;;;;;;13.18;76.90;98948.50;5036689;28;20409;-75
2023/04/12 09:25:11;;;;;;;3.70;1.60;;;;;;;13.19;76.97;98946.59;5036304;28;20417;-75
2023/04/12 09:27:46;;;;;;;3.55;2.10;;;;;;;13.17;77.55;98940.66;5035234;28;20465;-74
2023/04/12 09:30:12;;;;;;;4.75;2.00;;;;;;;13.20;77.39;98957.19;5031023;28;20736;-74
2023/04/12 09:32:38;;;;;;;5.70;1.85;;;;;;;13.16;77.78;98953.44;5019609;28;20482;-75
2023/04/12 09:35:04;;;;;;;2.90;1.80;;;;;;;13.11;77.85;98955.41;5029083;28;20510;-75
2023/04/12 09:37:30;;;;;;;2.60;1.52;;;;;;;13.00;78.11;98933.84;5030129;28;20397;-75
2023/04/12 09:40:03;;;;;;;4.10;1.65;;;;;;;13.12;77.88;98946.97;5012126;28;20404;-75
2023/04/12 09:42:29;;;;;;;2.38;1.40;;;;;;;13.26;77.79;98936.94;5026743;28;20411;-75
2023/04/12 09:44:56;;;;;;;4.97;1.42;;;;;;;13.27;77.57;98924.16;5029610;28;20797;-75
2023/04/12 09:47:23;;;;;;;3.22;1.50;;;;;;;13.30;77.36;98935.25;5026792;28;20921;-75
2023/04/12 09:49:49;;;;;;;6.63;2.00;;;;;;;13.31;77.63;98930.59;5010078;28;20503;-75
2023/04/12 09:52:14;;;;;;;1.83;1.37;;;;;;;13.30;77.45;98932.53;5023789;28;20441;-75
2023/04/12 09:54:45;;;;;;;3.80;1.77;;;;;;;13.32;77.21;98929.50;5009308;28;20506;-75
2023/04/12 09:57:12;;;;;;;3.55;1.98;;;;;;;13.36;77.52;98925.06;5022932;28;20516;-75
2023/04/12 09:59:39;;;;;;;4.70;1.57;;;;;;;13.43;77.18;98911.88;5009741;28;20766;-74
2023/04/12 10:02:16;;;;;;;2.35;1.50;;;;;;;13.42;77.30;98908.34;5009157;28;20433;-74
2023/04/12 10:04:41;;;;;;;5.03;1.38;;;;;;;13.46;77.92;98908.56;5011556;28;20423;-74
2023/04/12 10:07:07;;;;;;;2.83;1.13;;;;;;;13.47;77.96;98904.72;5006049;28;20420;-74
2023/04/12 10:09:40;;;;;;;5.90;1.58;;;;;;;13.69;77.33;98904.03;5011724;28;20447;-75
2023/04/12 10:12:07;;;;;;;4.88;1.42;;;;;;;13.77;77.01;98895.13;5006068;28;20447;-74
2023/04/12 10:14:32;;;;;;;2.13;1.50;;;;;;;13.78;76.92;98897.56;5011339;28;20439;-74
2023/04/12 10:17:00;;;;;;;2.70;1.33;;;;;;;13.82;76.84;98895.88;5012305;28;20530;-74
2023/04/12 10:19:28;;;;;;;3.03;1.00;;;;;;;13.93;76.71;98893.72;5012054;28;20864;-75
2023/04/12 10:21:54;;;;;;;4.05;1.80;;;;;;;13.95;76.10;98896.97;5010296;28;20418;-75
2023/04/12 10:24:21;;;;;;;3.88;1.25;;;;;;;13.99;76.17;98882.41;5019042;28;20422;-76
2023/04/12 10:26:49;;;;;;;2.83;1.20;;;;;;;13.98;75.42;98888.19;5020705;28;20431;-75
2023/04/12 10:29:30;;;;;;;2.50;1.30;;;;;;;14.11;75.54;98881.09;5019118;28;20410;-75
2023/04/12 10:31:58;;;;;;;2.63;1.10;;;;;;;14.11;75.52;98878.34;5034176;28;20956;-75
2023/04/12 10:34:28;;;;;;;3.00;1.80;;;;;;;14.07;75.83;98874.63;5042638;28;20406;-75
2023/04/12 10:36:56;;;;;;;1.83;1.42;;;;;;;13.99;75.81;98876.97;5019510;28;20411;-74
2023/04/12 10:39:54;;;;;;;3.92;2.13;;;;;;;14.01;76.01;98872.03;5031878;28;20465;-74
2023/04/12 10:42:27;;;;;;;3.70;1.40;;;;;;;14.13;76.23;98855.13;5004500;28;20407;-75
2023/04/12 10:45:35;;;;;;;1.95;1.10;;;;;;;14.25;74.68;98857.34;5024973;28;20407;-74
2023/04/12 10:48:02;;;;;;;4.00;1.10;;;;;;;14.26;74.48;98853.50;5026821;28;20418;-76
2023/04/12 10:50:30;;;;;;;2.88;1.67;;;;;;;14.49;74.83;98864.13;5027703;28;20401;-74
2023/04/12 10:53:11;;;;;;;2.35;1.00;;;;;;;14.69;74.19;98851.94;5046405;28;20395;-74
2023/04/12 10:55:41;;;;;;;0.98;0.98;;;;;;;15.04;73.37;98859.25;5027198;28;20411;-74
2023/04/12 10:58:07;;;;;;;2.30;1.10;;;;;;;15.17;72.46;98863.00;5029637;28;20432;-74
2023/04/12 11:00:55;;;;;;;2.42;1.27;;;;;;;15.00;72.96;98857.44;5024705;28;20396;-73
2023/04/12 11:03:21;;;;;;;1.30;1.20;;;;;;;14.88;73.44;98844.38;5026553;28;20395;-74
2023/04/12 11:06:15;;;;;;;2.33;1.00;;;;;;;14.76;72.94;98844.13;5026466;28;20469;-74
2023/04/12 11:08:42;;;;;;;2.10;0.90;;;;;;;14.51;72.84;98853.75;5029516;28;20405;-73
2023/04/12 11:11:19;;;;;;;1.98;1.15;;;;;;;14.39;73.73;98834.41;5029066;28;20908;-74
2023/04/12 11:13:45;;;;;;;1.23;0.90;;;;;;;14.50;73.38;98843.16;5044209;28;20466;-73
2023/04/12 11:16:13;;;;;;;2.57;1.03;;;;;;;14.53;73.27;98826.16;5022417;28;20902;-73
2023/04/12 11:18:38;;;;;;;3.37;1.20;;;;;;;14.62;72.76;98831.69;5027653;28;20500;-73
2023/04/12 11:21:04;;;;;;;1.63;1.00;;;;;;;14.82;72.12;98831.19;5029284;28;20909;-73
2023/04/12 11:23:31;;;;;;;1.35;1.00;;;;;;;14.87;71.25;98831.84;5024484;28;20413;-73
2023/04/12 11:25:57;;;;;;;1.10;0.73;;;;;;;14.76;71.10;98821.50;5028056;28;21005;-73
2023/04/12 11:28:24;;;;;;;1.98;1.40;;;;;;;14.81;71.27;98805.03;5044906;28;20904;-73
2023/04/12 11:30:54;;;;;;;1.50;0.90;;;;;;;14.91;70.72;98815.66;5025732;28;20430;-73
2023/04/12 11:33:52;;;;;;;5.05;1.55;;;;;;;14.91;70.04;98811.03;5041609;28;20415;-74
2023/04/12 11:36:17;;;;;;;1.20;0.80;;;;;;;15.19;69.17;98810.81;5019222;28;20425;-74